昆明 の空港の天気 - METARとTAF

昆明巫家餽国際空港 ( ZPPP / KMG ) - 中国 雲南省昆明市
飛行場実況気象(Metar)
観測時間12/14 14:00 CST (12/14 06:00 UTC)
風向・風速南西 8m/s
視程10km以上
天気現象
全天の4割程度の雲 雲底高度 610m
全天の8割程度の雲 雲底高度 1310m
気温14℃
湿度72%
気圧1026hPa
METARZPPP 140600Z 23008MPS 9999 SCT020 BKN043 14/09 Q1026 NOSIG
過去の天気等 Google飛行場航空写真 Wunderground天気予報

過去48時間のMETAR

飛行場予報(TAF)
発表時間: 12/14 09:22 CST (12/14 01:22 UTC)
予報対象時間: 14日14時 CST ~ 15日14時 CST
風向・風速南西 10m/s 瞬間風速 15m/s
視程10km以上
全天の4割程度の雲 雲底高度 790m
14日20時 CST ~ 14日21時 CST に徐々に
風向・風速南西 5m/s
TAF ZPPP 140122Z 1406/1506 23010G15MPS 9999 SCT026 TX17/1408Z TN07/1423Z
BECMG 1412/1413 23005MPS